Time;durP1;ratioP1;P1;durP2;ratioP2;P2;SDS_P1;SDS_P2;PMS_P1;PMS_P2;Temp;Humidity;BMP_temperature;BMP_pressure;BME280_temperature;BME280_humidity;BME280_pressure;Samples;Min_cycle;Max_cycle;Signal;HPM_P1;HPM_P2
2021/11/13 00:01:55;;;;;;;30.80;9.90;;;;;;;;;;5023489;28;20069;-79
2021/11/13 00:04:22;;;;;;;16.42;8.52;;;;;;;;;;5031305;28;20103;-79
2021/11/13 00:06:48;;;;;;;24.23;9.63;;;;;;;;;;5023757;28;20587;-79
2021/11/13 00:09:16;;;;;;;18.23;10.30;;;;;;;;;;5024209;28;20084;-80
2021/11/13 00:11:43;;;;;;;27.02;9.65;;;;;;;;;;5018639;28;20474;-80
2021/11/13 00:14:16;;;;;;;13.25;8.73;;;;;;;;;;5020865;28;20052;-81
2021/11/13 00:16:42;;;;;;;17.63;9.95;;;;;;;;;;5019329;28;20422;-80
2021/11/13 00:19:09;;;;;;;17.38;8.43;;;;;;;;;;5019835;28;20076;-81
2021/11/13 00:21:36;;;;;;;18.73;9.88;;;;;;;;;;5022729;28;20073;-80
2021/11/13 00:24:02;;;;;;;19.15;8.77;;;;;;;;;;5020001;28;20699;-82
2021/11/13 00:26:30;;;;;;;14.95;9.02;;;;;;;;;;5019931;28;20041;-79
2021/11/13 00:28:57;;;;;;;15.05;8.23;;;;;;;;;;5020125;28;20124;-80
2021/11/13 00:31:23;;;;;;;22.25;10.48;;;;;;;;;;5018440;28;20073;-81
2021/11/13 00:33:50;;;;;;;15.77;9.40;;;;;;;;;;5023640;28;20073;-80
2021/11/13 00:36:16;;;;;;;16.55;9.25;;;;;;;;;;5021230;28;20099;-81
2021/11/13 00:38:43;;;;;;;15.65;8.60;;;;;;;;;;5023818;28;20053;-82
2021/11/13 00:41:10;;;;;;;15.60;8.75;;;;;;;;;;5024183;28;20073;-81
2021/11/13 00:43:37;;;;;;;15.50;8.68;;;;;;;;;;5019415;28;20113;-81
2021/11/13 00:46:04;;;;;;;15.60;9.15;;;;;;;;;;5020644;28;20045;-82
2021/11/13 00:48:31;;;;;;;19.10;10.50;;;;;;;;;;5022486;28;20057;-79
2021/11/13 00:50:58;;;;;;;19.33;10.15;;;;;;;;;;5019285;28;20080;-81
2021/11/13 00:53:24;;;;;;;17.08;9.90;;;;;;;;;;5020746;28;20041;-80
2021/11/13 00:55:51;;;;;;;23.85;10.35;;;;;;;;;;5022622;28;20446;-81
2021/11/13 00:58:17;;;;;;;20.08;10.80;;;;;;;;;;5025036;28;20081;-81
2021/11/13 01:00:45;;;;;;;16.13;10.23;;;;;;;;;;5021598;28;20073;-81
2021/11/13 01:03:12;;;;;;;19.10;10.65;;;;;;;;;;5018217;28;20402;-80
2021/11/13 01:05:39;;;;;;;17.63;9.50;;;;;;;;;;5023756;28;20046;-82
2021/11/13 01:08:05;;;;;;;19.85;9.77;;;;;;;;;;5019170;28;20430;-81
2021/11/13 01:10:32;;;;;;;17.67;9.70;;;;;;;;;;5024731;28;20073;-81
2021/11/13 01:12:59;;;;;;;19.95;10.50;;;;;;;;;;5018220;28;20092;-81
2021/11/13 01:15:26;;;;;;;21.05;9.93;;;;;;;;;;5012283;28;20057;-82
2021/11/13 01:17:54;;;;;;;18.88;11.65;;;;;;;;;;5018594;28;20085;-81
2021/11/13 01:20:22;;;;;;;16.33;9.85;;;;;;;;;;5020421;28;20065;-81
2021/11/13 01:22:49;;;;;;;16.90;9.48;;;;;;;;;;5024235;28;20050;-80
2021/11/13 01:25:16;;;;;;;17.20;9.27;;;;;;;;;;5019822;28;20124;-81
2021/11/13 01:27:43;;;;;;;19.92;10.60;;;;;;;;;;5011113;28;20042;-82
2021/11/13 01:30:13;;;;;;;22.58;11.55;;;;;;;;;;5019122;28;20072;-84
2021/11/13 01:32:40;;;;;;;23.77;10.77;;;;;;;;;;5019678;28;20050;-81
2021/11/13 01:35:09;;;;;;;20.20;10.30;;;;;;;;;;5017155;28;20065;-79
2021/11/13 01:37:37;;;;;;;16.35;9.88;;;;;;;;;;5021570;28;20470;-81
2021/11/13 01:40:05;;;;;;;17.33;10.75;;;;;;;;;;5013624;28;20490;-82
2021/11/13 01:42:32;;;;;;;17.80;9.60;;;;;;;;;;5016040;28;20092;-84
2021/11/13 01:45:00;;;;;;;19.55;11.18;;;;;;;;;;5020070;28;20065;-81
2021/11/13 01:47:26;;;;;;;18.73;10.57;;;;;;;;;;5017686;28;20046;-82
2021/11/13 01:49:53;;;;;;;19.02;9.63;;;;;;;;;;5015104;28;20085;-82
2021/11/13 01:52:21;;;;;;;27.80;11.02;;;;;;;;;;5016297;28;20080;-81
2021/11/13 01:54:47;;;;;;;28.35;12.60;;;;;;;;;;5016911;28;20644;-81
2021/11/13 01:57:21;;;;;;;19.77;10.77;;;;;;;;;;5018025;28;20050;-83
2021/11/13 01:59:49;;;;;;;30.38;14.25;;;;;;;;;;5016286;28;20103;-82
2021/11/13 02:02:16;;;;;;;22.80;11.98;;;;;;;;;;5016300;28;20128;-81
2021/11/13 02:04:43;;;;;;;34.35;14.70;;;;;;;;;;5016582;28;20049;-81
2021/11/13 02:07:10;;;;;;;26.63;13.15;;;;;;;;;;5017820;28;20046;-82
2021/11/13 02:09:38;;;;;;;22.10;11.93;;;;;;;;;;5017269;28;20112;-80
2021/11/13 02:12:06;;;;;;;32.25;12.90;;;;;;;;;;5016270;28;20045;-80
2021/11/13 02:14:32;;;;;;;22.70;12.23;;;;;;;;;;5017539;28;20509;-81
2021/11/13 02:16:59;;;;;;;31.08;13.60;;;;;;;;;;5020750;28;20073;-82
2021/11/13 02:19:25;;;;;;;37.28;13.80;;;;;;;;;;5018201;28;20041;-81
2021/11/13 02:21:53;;;;;;;28.05;14.55;;;;;;;;;;5016833;28;20062;-81
2021/11/13 02:24:20;;;;;;;25.00;12.88;;;;;;;;;;5019357;28;20042;-79
2021/11/13 02:26:46;;;;;;;29.50;11.82;;;;;;;;;;5018835;28;20085;-79
2021/11/13 02:29:13;;;;;;;23.95;12.05;;;;;;;;;;5018522;28;20478;-82
2021/11/13 02:31:42;;;;;;;48.58;15.82;;;;;;;;;;5018848;28;20388;-81
2021/11/13 02:34:11;;;;;;;23.23;12.30;;;;;;;;;;5018978;28;20406;-80
2021/11/13 02:36:39;;;;;;;33.83;13.98;;;;;;;;;;5016918;28;20131;-80
2021/11/13 02:39:09;;;;;;;31.15;13.30;;;;;;;;;;5016232;28;20066;-79
2021/11/13 02:41:36;;;;;;;27.25;13.60;;;;;;;;;;5015587;28;20084;-81
2021/11/13 02:44:04;;;;;;;36.42;14.30;;;;;;;;;;5017050;28;20104;-81
2021/11/13 02:46:32;;;;;;;26.33;14.27;;;;;;;;;;5020291;28;20050;-83
2021/11/13 02:49:00;;;;;;;22.10;12.88;;;;;;;;;;5017619;28;20068;-83
2021/11/13 02:51:27;;;;;;;22.77;12.45;;;;;;;;;;5016225;28;20076;-81
2021/11/13 02:53:53;;;;;;;26.10;12.85;;;;;;;;;;5018014;28;20066;-81
2021/11/13 02:56:22;;;;;;;22.55;12.32;;;;;;;;;;5019349;28;20081;-79
2021/11/13 02:58:49;;;;;;;37.08;13.90;;;;;;;;;;5018698;28;20052;-83
2021/11/13 03:01:18;;;;;;;29.35;11.82;;;;;;;;;;5017213;28;20065;-82
2021/11/13 03:03:48;;;;;;;27.60;13.30;;;;;;;;;;5016331;28;20042;-80
2021/11/13 03:06:15;;;;;;;26.75;13.02;;;;;;;;;;5020112;28;20073;-81
2021/11/13 03:08:42;;;;;;;22.42;11.88;;;;;;;;;;5020360;28;20066;-83
2021/11/13 03:11:11;;;;;;;26.52;12.95;;;;;;;;;;5015037;28;20077;-80
2021/11/13 03:13:43;;;;;;;26.38;12.45;;;;;;;;;;5015261;28;20074;-82
2021/11/13 03:16:10;;;;;;;29.23;12.93;;;;;;;;;;5014379;28;20050;-81
2021/11/13 03:18:37;;;;;;;21.30;11.52;;;;;;;;;;5017194;28;20072;-82
2021/11/13 03:21:06;;;;;;;21.25;11.55;;;;;;;;;;5016554;28;20041;-80
2021/11/13 03:23:32;;;;;;;25.17;12.45;;;;;;;;;;5019082;28;20054;-82
2021/11/13 03:26:01;;;;;;;19.95;11.13;;;;;;;;;;5016948;28;20042;-82
2021/11/13 03:28:29;;;;;;;19.15;10.85;;;;;;;;;;5015882;28;20080;-81
2021/11/13 03:31:01;;;;;;;18.83;10.90;;;;;;;;;;5017380;28;20149;-81
2021/11/13 03:33:27;;;;;;;20.08;10.43;;;;;;;;;;5018094;28;20042;-83
2021/11/13 03:35:54;;;;;;;28.88;12.30;;;;;;;;;;5015416;28;20054;-81
2021/11/13 03:38:21;;;;;;;24.17;11.32;;;;;;;;;;5015533;28;20494;-80
2021/11/13 03:40:49;;;;;;;16.75;10.85;;;;;;;;;;5015454;28;20069;-79
2021/11/13 03:43:16;;;;;;;27.50;10.85;;;;;;;;;;5016370;28;20060;-82
2021/11/13 03:45:44;;;;;;;24.58;12.00;;;;;;;;;;5017673;28;20053;-80
2021/11/13 03:48:12;;;;;;;34.70;12.32;;;;;;;;;;5013338;28;20065;-81
2021/11/13 03:50:39;;;;;;;21.95;10.98;;;;;;;;;;5020396;28;20084;-80
2021/11/13 03:53:07;;;;;;;16.10;10.45;;;;;;;;;;5024004;28;20073;-81
2021/11/13 03:55:35;;;;;;;16.83;10.43;;;;;;;;;;5013540;28;20073;-80
2021/11/13 03:58:02;;;;;;;19.55;9.75;;;;;;;;;;5022236;28;20613;-81
2021/11/13 04:00:29;;;;;;;17.70;10.45;;;;;;;;;;5020968;28;20049;-83
2021/11/13 04:02:56;;;;;;;20.90;10.80;;;;;;;;;;5020589;28;20046;-81
2021/11/13 04:05:24;;;;;;;23.92;11.23;;;;;;;;;;5024866;28;20080;-80
2021/11/13 04:07:51;;;;;;;19.50;10.07;;;;;;;;;;5035060;28;20068;-80
2021/11/13 04:10:18;;;;;;;23.02;10.65;;;;;;;;;;5029428;28;20073;-80
2021/11/13 04:12:46;;;;;;;17.02;10.23;;;;;;;;;;5025620;28;20111;-81
2021/11/13 04:15:13;;;;;;;25.35;9.85;;;;;;;;;;5019948;28;20064;-80
2021/11/13 04:17:42;;;;;;;16.75;9.45;;;;;;;;;;5023016;28;20088;-81
2021/11/13 04:20:10;;;;;;;15.00;8.70;;;;;;;;;;5027469;28;20046;-80
2021/11/13 04:22:39;;;;;;;15.43;8.65;;;;;;;;;;5021751;28;20605;-82
2021/11/13 04:25:06;;;;;;;18.65;10.48;;;;;;;;;;5017708;28;20045;-80
2021/11/13 04:27:33;;;;;;;17.48;9.60;;;;;;;;;;5020886;28;20050;-81
2021/11/13 04:30:00;;;;;;;15.50;8.85;;;;;;;;;;5015236;28;20524;-80
2021/11/13 04:32:29;;;;;;;20.55;9.45;;;;;;;;;;5019947;28;20084;-81
2021/11/13 04:35:14;;;;;;;23.75;10.52;;;;;;;;;;5014850;28;20509;-79
2021/11/13 04:37:43;;;;;;;15.60;9.55;;;;;;;;;;5018041;28;20045;-80
2021/11/13 04:40:10;;;;;;;20.55;9.63;;;;;;;;;;5019760;28;20119;-81
2021/11/13 04:42:37;;;;;;;16.48;8.98;;;;;;;;;;5020642;28;20494;-83
2021/11/13 04:45:04;;;;;;;18.90;9.38;;;;;;;;;;5018736;28;20073;-81
2021/11/13 04:47:33;;;;;;;16.65;9.27;;;;;;;;;;5030681;28;20050;-80
2021/11/13 04:50:00;;;;;;;22.20;10.18;;;;;;;;;;5025608;28;20479;-80
2021/11/13 04:52:26;;;;;;;16.42;9.43;;;;;;;;;;5019086;28;20064;-81
2021/11/13 04:54:54;;;;;;;21.30;9.75;;;;;;;;;;5023383;28;20042;-82
2021/11/13 04:57:21;;;;;;;14.95;8.80;;;;;;;;;;5013777;28;20065;-80
2021/11/13 04:59:47;;;;;;;22.95;10.40;;;;;;;;;;5026384;28;20046;-82
2021/11/13 05:02:14;;;;;;;23.63;10.38;;;;;;;;;;5029694;28;20065;-82
2021/11/13 05:04:41;;;;;;;16.73;9.68;;;;;;;;;;5024543;28;20053;-81
2021/11/13 05:07:07;;;;;;;26.42;11.18;;;;;;;;;;5023766;28;20050;-81
2021/11/13 05:09:34;;;;;;;20.80;10.50;;;;;;;;;;5020544;28;20096;-82
2021/11/13 05:12:02;;;;;;;26.33;12.52;;;;;;;;;;5019241;28;20046;-82
2021/11/13 05:14:28;;;;;;;19.50;9.90;;;;;;;;;;5021888;28;20057;-81
2021/11/13 05:16:55;;;;;;;34.15;12.32;;;;;;;;;;5021917;28;20384;-81
2021/11/13 05:19:21;;;;;;;21.23;10.63;;;;;;;;;;5024217;28;20068;-80
2021/11/13 05:21:48;;;;;;;25.92;10.32;;;;;;;;;;5019358;28;20076;-83
2021/11/13 05:24:14;;;;;;;28.15;10.85;;;;;;;;;;5020694;28;20045;-83
2021/11/13 05:26:41;;;;;;;21.20;10.40;;;;;;;;;;5021409;28;20073;-80
2021/11/13 05:29:09;;;;;;;21.77;10.13;;;;;;;;;;5025854;28;20088;-79
2021/11/13 05:31:35;;;;;;;27.55;9.75;;;;;;;;;;5010810;28;20046;-80
2021/11/13 05:34:02;;;;;;;19.95;9.75;;;;;;;;;;5019442;28;20072;-81
2021/11/13 05:36:28;;;;;;;18.20;10.90;;;;;;;;;;5014833;28;20108;-81
2021/11/13 05:38:55;;;;;;;20.27;10.10;;;;;;;;;;5030053;28;20080;-80
2021/11/13 05:41:21;;;;;;;22.02;9.82;;;;;;;;;;5024246;28;20092;-81
2021/11/13 05:43:48;;;;;;;20.10;11.05;;;;;;;;;;5020047;28;20081;-80
2021/11/13 05:46:16;;;;;;;27.50;10.43;;;;;;;;;;5016172;28;20065;-80
2021/11/13 05:48:43;;;;;;;17.65;9.57;;;;;;;;;;5028774;28;21262;-80
2021/11/13 05:51:09;;;;;;;21.05;9.68;;;;;;;;;;5022969;28;20076;-80
2021/11/13 05:53:39;;;;;;;17.15;8.73;;;;;;;;;;5026024;28;20403;-81
2021/11/13 05:56:06;;;;;;;20.63;8.93;;;;;;;;;;5024723;28;20524;-82
2021/11/13 05:58:32;;;;;;;19.30;10.23;;;;;;;;;;5021780;28;20115;-82
2021/11/13 06:00:59;;;;;;;18.35;10.82;;;;;;;;;;5019251;28;20042;-83
2021/11/13 06:03:27;;;;;;;17.85;10.55;;;;;;;;;;5018079;28;20073;-81
2021/11/13 06:05:53;;;;;;;20.45;10.77;;;;;;;;;;5020388;28;20157;-81
2021/11/13 06:08:20;;;;;;;17.52;8.40;;;;;;;;;;5019458;28;20046;-81
2021/11/13 06:10:46;;;;;;;15.05;9.02;;;;;;;;;;5032983;28;20086;-82
2021/11/13 06:13:13;;;;;;;16.95;8.82;;;;;;;;;;5018212;28;20084;-82
2021/11/13 06:15:39;;;;;;;18.48;9.27;;;;;;;;;;5021917;28;20103;-82
2021/11/13 06:18:06;;;;;;;14.63;8.77;;;;;;;;;;5024091;28;20081;-82
2021/11/13 06:20:34;;;;;;;17.83;9.10;;;;;;;;;;5023744;28;20076;-80
2021/11/13 06:23:00;;;;;;;23.33;9.65;;;;;;;;;;5012821;28;20748;-80
2021/11/13 06:25:27;;;;;;;21.17;9.80;;;;;;;;;;5021489;28;20068;-80
2021/11/13 06:27:53;;;;;;;18.35;9.27;;;;;;;;;;5018552;28;20049;-81
2021/11/13 06:30:20;;;;;;;18.02;9.50;;;;;;;;;;5020780;28;20490;-80
2021/11/13 06:32:50;;;;;;;18.08;10.13;;;;;;;;;;5024527;28;20049;-81
2021/11/13 06:35:18;;;;;;;17.50;9.68;;;;;;;;;;5019997;28;20080;-79
2021/11/13 06:37:45;;;;;;;15.98;8.73;;;;;;;;;;5022514;28;20046;-81
2021/11/13 06:40:13;;;;;;;18.98;9.80;;;;;;;;;;5020573;28;20064;-81
2021/11/13 06:42:41;;;;;;;22.20;10.15;;;;;;;;;;5022497;28;20459;-82
2021/11/13 06:45:09;;;;;;;20.70;9.20;;;;;;;;;;5019071;28;20038;-80
2021/11/13 06:47:36;;;;;;;24.25;10.55;;;;;;;;;;5014273;28;20080;-82
2021/11/13 06:50:03;;;;;;;17.10;8.90;;;;;;;;;;5019608;28;20069;-82
2021/11/13 06:52:30;;;;;;;19.10;9.63;;;;;;;;;;5021168;28;20046;-81
2021/11/13 06:54:58;;;;;;;26.52;10.23;;;;;;;;;;5011969;28;20077;-82
2021/11/13 06:57:24;;;;;;;18.77;9.88;;;;;;;;;;5019593;28;20407;-82
2021/11/13 06:59:51;;;;;;;17.83;10.52;;;;;;;;;;5026380;28;20084;-81
2021/11/13 07:02:17;;;;;;;17.27;9.38;;;;;;;;;;5028771;28;20050;-82
2021/11/13 07:04:44;;;;;;;16.35;9.50;;;;;;;;;;5014439;28;20057;-82
2021/11/13 07:07:11;;;;;;;16.27;9.55;;;;;;;;;;5015479;28;20042;-82
2021/11/13 07:09:37;;;;;;;18.90;9.45;;;;;;;;;;5012614;28;20104;-81
2021/11/13 07:12:06;;;;;;;19.65;9.52;;;;;;;;;;5015944;28;20049;-80
2021/11/13 07:14:33;;;;;;;16.23;9.27;;;;;;;;;;5016663;28;20046;-80
2021/11/13 07:16:59;;;;;;;16.85;8.93;;;;;;;;;;5019379;28;20081;-79
2021/11/13 07:19:26;;;;;;;17.52;9.55;;;;;;;;;;5015825;28;20084;-80
2021/11/13 07:21:52;;;;;;;20.85;10.98;;;;;;;;;;5017834;28;20400;-81
2021/11/13 07:24:19;;;;;;;21.00;10.35;;;;;;;;;;5018088;28;20395;-81
2021/11/13 07:26:51;;;;;;;19.85;10.88;;;;;;;;;;5017529;28;20085;-81
2021/11/13 07:29:19;;;;;;;23.95;11.75;;;;;;;;;;5018782;28;20042;-80
2021/11/13 07:31:46;;;;;;;21.15;11.15;;;;;;;;;;5017411;28;20049;-82
2021/11/13 07:34:12;;;;;;;22.42;10.65;;;;;;;;;;5019234;28;20065;-80
2021/11/13 07:36:39;;;;;;;19.77;11.23;;;;;;;;;;5016806;28;20092;-79
2021/11/13 07:39:05;;;;;;;20.02;10.27;;;;;;;;;;5015672;28;20077;-83
2021/11/13 07:41:32;;;;;;;27.70;11.30;;;;;;;;;;5022535;28;20447;-80
2021/11/13 07:43:58;;;;;;;20.75;11.15;;;;;;;;;;5015788;28;20046;-79
2021/11/13 07:46:26;;;;;;;19.95;10.82;;;;;;;;;;5017808;28;20100;-83
2021/11/13 07:48:53;;;;;;;21.55;11.38;;;;;;;;;;5016938;28;20120;-80
2021/11/13 07:51:21;;;;;;;22.50;11.85;;;;;;;;;;5019085;28;20042;-80
2021/11/13 07:53:48;;;;;;;24.90;12.35;;;;;;;;;;5019249;28;20073;-80
2021/11/13 07:56:14;;;;;;;20.73;10.50;;;;;;;;;;5019496;28;20093;-82
2021/11/13 07:58:41;;;;;;;21.50;11.82;;;;;;;;;;5022266;28;20081;-82
2021/11/13 08:01:08;;;;;;;22.70;11.95;;;;;;;;;;5024790;28;20617;-81
2021/11/13 08:03:35;;;;;;;23.52;11.82;;;;;;;;;;5018675;28;20104;-81
2021/11/13 08:06:02;;;;;;;25.23;12.70;;;;;;;;;;5022443;28;20501;-81
2021/11/13 08:08:28;;;;;;;24.55;12.52;;;;;;;;;;5014034;28;20076;-80
2021/11/13 08:17:41;;;;;;;25.52;12.68;;;;;;;;;;5027476;28;20099;-80
2021/11/13 08:20:11;;;;;;;26.60;12.35;;;;;;;;;;5024365;28;20051;-82
2021/11/13 08:22:38;;;;;;;26.23;13.15;;;;;;;;;;5020972;28;20042;-83
2021/11/13 08:25:06;;;;;;;20.92;11.75;;;;;;;;;;5025653;28;20053;-83
2021/11/13 08:27:33;;;;;;;26.55;14.02;;;;;;;;;;5020212;28;20076;-82
2021/11/13 08:30:00;;;;;;;24.02;12.40;;;;;;;;;;5002119;28;20085;-83
2021/11/13 08:32:26;;;;;;;21.98;12.90;;;;;;;;;;5019423;28;20045;-82
2021/11/13 08:34:53;;;;;;;22.63;12.48;;;;;;;;;;5016181;28;20038;-82
2021/11/13 08:37:21;;;;;;;22.17;12.07;;;;;;;;;;5019823;28;20069;-82
2021/11/13 08:39:47;;;;;;;24.20;11.77;;;;;;;;;;5018384;28;20053;-81
2021/11/13 08:42:14;;;;;;;23.92;13.30;;;;;;;;;;5019011;28;20078;-82
2021/11/13 08:44:42;;;;;;;21.63;12.40;;;;;;;;;;5018211;28;20050;-82
2021/11/13 08:47:09;;;;;;;22.05;12.50;;;;;;;;;;5016388;28;20080;-83
2021/11/13 08:49:36;;;;;;;24.48;12.60;;;;;;;;;;5016399;28;20085;-82
2021/11/13 08:52:03;;;;;;;19.65;11.10;;;;;;;;;;5015658;28;20065;-82
2021/11/13 08:54:32;;;;;;;21.35;11.70;;;;;;;;;;5017661;28;20487;-81
2021/11/13 08:56:58;;;;;;;20.48;12.50;;;;;;;;;;5017564;28;20041;-82
2021/11/13 08:59:25;;;;;;;20.05;11.40;;;;;;;;;;5017074;28;20081;-82
2021/11/13 09:01:51;;;;;;;20.50;11.52;;;;;;;;;;5017202;28;20062;-82
2021/11/13 09:04:18;;;;;;;20.90;12.32;;;;;;;;;;5017782;28;20082;-83
2021/11/13 09:06:45;;;;;;;21.08;11.60;;;;;;;;;;5018538;28;20440;-82
2021/11/13 09:09:12;;;;;;;19.77;11.70;;;;;;;;;;5017671;28;20844;-83
2021/11/13 09:11:42;;;;;;;18.48;11.13;;;;;;;;;;5014981;28;20056;-83
2021/11/13 09:14:13;;;;;;;17.88;10.68;;;;;;;;;;5015661;28;20069;-85
2021/11/13 09:16:41;;;;;;;19.67;10.85;;;;;;;;;;5016109;28;20447;-82
2021/11/13 09:19:07;;;;;;;21.35;11.95;;;;;;;;;;5017062;28;20046;-83
2021/11/13 09:21:34;;;;;;;18.40;11.38;;;;;;;;;;5019259;28;20053;-83
2021/11/13 09:24:01;;;;;;;20.45;11.18;;;;;;;;;;5018247;28;20068;-83
2021/11/13 09:26:28;;;;;;;20.85;11.38;;;;;;;;;;5017170;28;20096;-82
2021/11/13 09:28:56;;;;;;;16.88;10.13;;;;;;;;;;5019416;28;20471;-82
2021/11/13 09:31:23;;;;;;;20.50;12.18;;;;;;;;;;5017566;28;20046;-84
2021/11/13 09:33:50;;;;;;;17.40;10.70;;;;;;;;;;5014637;28;20074;-83
2021/11/13 09:36:17;;;;;;;20.17;11.82;;;;;;;;;;5017319;28;20070;-83
2021/11/13 09:38:44;;;;;;;19.10;12.10;;;;;;;;;;5016714;28;20454;-83
2021/11/13 09:41:12;;;;;;;18.27;10.45;;;;;;;;;;5019577;28;20588;-83
2021/11/13 09:43:39;;;;;;;19.13;12.00;;;;;;;;;;5014930;28;20077;-83
2021/11/13 09:46:09;;;;;;;20.35;12.55;;;;;;;;;;5018526;28;20062;-83
2021/11/13 09:48:37;;;;;;;19.35;12.13;;;;;;;;;;5018524;28;20050;-81
2021/11/13 09:51:04;;;;;;;21.48;11.95;;;;;;;;;;5016616;28;20050;-80
2021/11/13 09:53:31;;;;;;;23.08;11.27;;;;;;;;;;5017515;28;20046;-80
2021/11/13 09:55:59;;;;;;;17.77;11.02;;;;;;;;;;5018831;28;20046;-82
2021/11/13 09:58:27;;;;;;;21.92;12.75;;;;;;;;;;5019732;28;20125;-82
2021/11/13 10:00:53;;;;;;;18.45;11.82;;;;;;;;;;5017772;28;20073;-81
2021/11/13 10:03:21;;;;;;;20.17;12.38;;;;;;;;;;5019292;28;20066;-83
2021/11/13 10:05:49;;;;;;;21.60;13.10;;;;;;;;;;5017861;28;20072;-82
2021/11/13 10:08:16;;;;;;;21.88;13.43;;;;;;;;;;5017919;28;20045;-83
2021/11/13 10:10:43;;;;;;;23.42;13.27;;;;;;;;;;5016433;28;20104;-83
2021/11/13 10:13:24;;;;;;;20.02;13.02;;;;;;;;;;5017088;28;20541;-83
2021/11/13 10:15:54;;;;;;;20.40;13.43;;;;;;;;;;5015925;28;20077;-83
2021/11/13 10:18:23;;;;;;;19.48;12.52;;;;;;;;;;5016972;28;20088;-83
2021/11/13 10:20:53;;;;;;;21.55;12.30;;;;;;;;;;5016849;28;20041;-84
2021/11/13 10:23:32;;;;;;;18.70;11.77;;;;;;;;;;5018235;28;20069;-80
2021/11/13 10:26:02;;;;;;;18.98;11.63;;;;;;;;;;5017260;28;20081;-82
2021/11/13 10:28:30;;;;;;;16.80;10.90;;;;;;;;;;5016956;28;20057;-82
2021/11/13 10:31:08;;;;;;;19.15;11.27;;;;;;;;;;5017070;28;20115;-82
2021/11/13 10:33:36;;;;;;;19.23;11.65;;;;;;;;;;5014841;28;20533;-83
2021/11/13 10:36:04;;;;;;;20.63;11.98;;;;;;;;;;5017124;28;20057;-82
2021/11/13 10:38:32;;;;;;;18.40;11.20;;;;;;;;;;5017364;28;20064;-81
2021/11/13 10:41:00;;;;;;;18.17;11.70;;;;;;;;;;5016583;28;20089;-81
2021/11/13 10:43:36;;;;;;;18.17;11.73;;;;;;;;;;5015858;28;20088;-80
2021/11/13 10:46:04;;;;;;;19.23;11.23;;;;;;;;;;5016680;28;20495;-80
2021/11/13 10:48:31;;;;;;;20.83;12.60;;;;;;;;;;5017624;28;20073;-82
2021/11/13 10:51:06;;;;;;;20.35;11.43;;;;;;;;;;5015763;28;20082;-83
2021/11/13 10:53:36;;;;;;;21.10;11.93;;;;;;;;;;5016953;28;20183;-82
2021/11/13 10:56:13;;;;;;;18.65;11.77;;;;;;;;;;5017901;28;20101;-85
2021/11/13 10:58:43;;;;;;;18.95;11.10;;;;;;;;;;5016855;28;20065;-81
2021/11/13 11:01:13;;;;;;;17.08;10.80;;;;;;;;;;5016766;28;20058;-82
2021/11/13 11:03:41;;;;;;;18.83;11.88;;;;;;;;;;5020817;28;20081;-83
2021/11/13 11:06:11;;;;;;;18.98;11.65;;;;;;;;;;5020145;28;20095;-82
2021/11/13 11:08:40;;;;;;;19.30;10.60;;;;;;;;;;5022655;28;20108;-81
2021/11/13 11:11:25;;;;;;;19.45;12.63;;;;;;;;;;5021883;28;20475;-81
2021/11/13 11:13:53;;;;;;;18.33;11.55;;;;;;;;;;5020109;28;20050;-81
2021/11/13 11:16:31;;;;;;;21.73;11.27;;;;;;;;;;5018622;28;20108;-81
2021/11/13 11:19:01;;;;;;;17.58;10.70;;;;;;;;;;5018264;28;20054;-82
2021/11/13 11:21:43;;;;;;;18.85;11.13;;;;;;;;;;5021086;28;20096;-81
2021/11/13 11:24:12;;;;;;;23.60;11.63;;;;;;;;;;5020735;28;20096;-82
2021/11/13 11:26:40;;;;;;;20.60;12.38;;;;;;;;;;5019807;28;20072;-80
2021/11/13 11:29:07;;;;;;;18.90;11.60;;;;;;;;;;5018434;28;20080;-81
2021/11/13 11:31:45;;;;;;;19.45;11.00;;;;;;;;;;5018028;28;20085;-82
2021/11/13 11:34:23;;;;;;;18.77;10.88;;;;;;;;;;5017208;28;20503;-82
2021/11/13 11:36:52;;;;;;;19.80;11.70;;;;;;;;;;5015681;28;20055;-81
2021/11/13 11:39:19;;;;;;;18.60;11.57;;;;;;;;;;5019959;28;20441;-79
2021/11/13 11:41:46;;;;;;;16.85;10.85;;;;;;;;;;5020324;28;20053;-80
2021/11/13 11:44:13;;;;;;;18.15;11.02;;;;;;;;;;5019127;28;20066;-79
2021/11/13 11:46:39;;;;;;;18.58;11.60;;;;;;;;;;5018935;28;20443;-79
2021/11/13 11:49:06;;;;;;;17.70;10.07;;;;;;;;;;5017286;28;20069;-80
2021/11/13 11:51:33;;;;;;;18.85;11.52;;;;;;;;;;5017161;28;20096;-81
2021/11/13 11:54:05;;;;;;;19.60;12.15;;;;;;;;;;5019397;28;20042;-83
2021/11/13 11:56:31;;;;;;;19.77;11.82;;;;;;;;;;5021070;28;20153;-83
2021/11/13 11:59:00;;;;;;;16.85;11.63;;;;;;;;;;5020830;28;20049;-81
2021/11/13 12:01:28;;;;;;;16.65;10.57;;;;;;;;;;5020565;28;20089;-83
2021/11/13 12:04:19;;;;;;;18.83;11.98;;;;;;;;;;5020382;28;20049;-82
2021/11/13 12:06:57;;;;;;;20.35;11.10;;;;;;;;;;5018199;28;20104;-81
2021/11/13 12:09:27;;;;;;;15.95;11.15;;;;;;;;;;5020091;28;20046;-81
2021/11/13 12:12:12;;;;;;;19.05;10.13;;;;;;;;;;5021932;28;20065;-80
2021/11/13 12:14:39;;;;;;;18.63;10.82;;;;;;;;;;5020390;28;20104;-81
2021/11/13 12:17:34;;;;;;;16.63;10.57;;;;;;;;;;5019704;28;20084;-82
2021/11/13 12:20:29;;;;;;;21.60;11.52;;;;;;;;;;5020372;28;20050;-82
2021/11/13 12:22:58;;;;;;;18.90;11.38;;;;;;;;;;5022280;28;20233;-82
2021/11/13 12:25:29;;;;;;;19.60;10.85;;;;;;;;;;5019479;28;20038;-82
2021/11/13 12:28:18;;;;;;;21.33;11.38;;;;;;;;;;5020680;28;20151;-83
2021/11/13 12:30:48;;;;;;;17.50;10.48;;;;;;;;;;5024051;28;20074;-81
2021/11/13 12:33:48;;;;;;;20.15;10.88;;;;;;;;;;5021815;28;21131;-82
2021/11/13 12:36:19;;;;;;;17.77;10.98;;;;;;;;;;5023195;28;20121;-82
2021/11/13 12:38:53;;;;;;;20.48;11.57;;;;;;;;;;5021003;28;20042;-81
2021/11/13 12:41:23;;;;;;;18.50;11.35;;;;;;;;;;5020622;28;20045;-82
2021/11/13 12:44:08;;;;;;;18.83;11.07;;;;;;;;;;5019141;28;20073;-82
2021/11/13 12:46:38;;;;;;;18.13;10.70;;;;;;;;;;5020469;28;20136;-79
2021/11/13 12:49:25;;;;;;;19.17;12.45;;;;;;;;;;5021442;28;20505;-80
2021/11/13 12:52:03;;;;;;;21.25;11.25;;;;;;;;;;5020859;28;20402;-80
2021/11/13 12:54:32;;;;;;;19.27;12.30;;;;;;;;;;5017194;28;20084;-80
2021/11/13 12:57:01;;;;;;;20.92;12.02;;;;;;;;;;5018126;28;20054;-81
2021/11/13 12:59:30;;;;;;;17.70;11.63;;;;;;;;;;5018161;28;20049;-81
2021/11/13 13:01:59;;;;;;;22.58;13.32;;;;;;;;;;5019366;28;20041;-81
2021/11/13 13:04:30;;;;;;;19.23;12.00;;;;;;;;;;5021022;28;20096;-81
2021/11/13 13:06:56;;;;;;;19.52;12.30;;;;;;;;;;5018167;28;20060;-79
2021/11/13 13:09:23;;;;;;;20.20;11.52;;;;;;;;;;5019575;28;20041;-80
2021/11/13 13:11:50;;;;;;;21.85;13.65;;;;;;;;;;5019971;28;20132;-82
2021/11/13 13:14:19;;;;;;;20.42;13.93;;;;;;;;;;5019630;28;20464;-81
2021/11/13 13:16:46;;;;;;;22.15;13.43;;;;;;;;;;5018974;28;20053;-81
2021/11/13 13:19:13;;;;;;;20.50;12.45;;;;;;;;;;5018399;28;20068;-81
2021/11/13 13:21:41;;;;;;;20.52;12.15;;;;;;;;;;5019321;28;20464;-82
2021/11/13 13:24:12;;;;;;;25.17;13.63;;;;;;;;;;5018522;28;20065;-82
2021/11/13 13:26:38;;;;;;;20.77;12.10;;;;;;;;;;5016274;28;20073;-82
2021/11/13 13:29:10;;;;;;;18.67;12.27;;;;;;;;;;5018607;28;20096;-82
2021/11/13 13:31:38;;;;;;;25.20;12.32;;;;;;;;;;5019648;28;20085;-81
2021/11/13 13:34:04;;;;;;;23.42;13.38;;;;;;;;;;5020298;28;20070;-82
2021/11/13 13:36:34;;;;;;;25.10;12.82;;;;;;;;;;5015812;28;20057;-80
2021/11/13 13:39:10;;;;;;;19.10;12.07;;;;;;;;;;5017401;28;20133;-80
2021/11/13 13:41:36;;;;;;;22.55;12.75;;;;;;;;;;5019696;28;20057;-81
2021/11/13 13:44:04;;;;;;;26.23;16.27;;;;;;;;;;5019042;28;20070;-81
2021/11/13 13:46:41;;;;;;;22.83;14.52;;;;;;;;;;5018549;28;20141;-82
2021/11/13 13:49:13;;;;;;;27.00;15.77;;;;;;;;;;5018756;28;20041;-81
2021/11/13 13:51:42;;;;;;;23.92;14.38;;;;;;;;;;5019647;28;20050;-82
2021/11/13 13:54:13;;;;;;;22.83;13.75;;;;;;;;;;5018498;28;20462;-81
2021/11/13 13:56:44;;;;;;;55.15;26.27;;;;;;;;;;5018404;28;20041;-81
2021/11/13 13:59:20;;;;;;;20.40;13.00;;;;;;;;;;5016915;28;20046;-81
2021/11/13 14:01:53;;;;;;;19.85;12.05;;;;;;;;;;5018845;28;20459;-81
2021/11/13 14:04:20;;;;;;;20.98;10.75;;;;;;;;;;5015909;28;20101;-81
2021/11/13 14:06:47;;;;;;;23.25;12.90;;;;;;;;;;5018357;28;20078;-80
2021/11/13 14:09:15;;;;;;;18.52;11.13;;;;;;;;;;5017063;28;20053;-80
2021/11/13 14:11:41;;;;;;;21.55;12.25;;;;;;;;;;5015126;28;20046;-81
2021/11/13 14:14:08;;;;;;;34.80;19.42;;;;;;;;;;5016694;28;20042;-82
2021/11/13 14:16:38;;;;;;;19.83;12.20;;;;;;;;;;5017036;28;20064;-82
2021/11/13 14:19:10;;;;;;;20.45;12.63;;;;;;;;;;5017866;28;20134;-81
2021/11/13 14:21:37;;;;;;;22.42;14.43;;;;;;;;;;5015379;28;20136;-82
2021/11/13 14:24:03;;;;;;;21.55;12.10;;;;;;;;;;5017771;28;20065;-81
2021/11/13 14:26:31;;;;;;;19.17;11.90;;;;;;;;;;5014711;28;20069;-81
2021/11/13 14:28:59;;;;;;;21.90;12.48;;;;;;;;;;5016032;28;20050;-80
2021/11/13 14:31:29;;;;;;;20.83;11.80;;;;;;;;;;5016484;28;20088;-82
2021/11/13 14:33:58;;;;;;;18.10;11.15;;;;;;;;;;5016427;28;20057;-82
2021/11/13 14:36:29;;;;;;;25.80;13.02;;;;;;;;;;5013591;28;20073;-84